KAL251 KMIA-KJFK
Flight info
| Callsign | KAL251 |
|---|---|
| Flight time | N/A |
| Altitude | 37000 |
| Route | ALTNN2 DUCEN Q87 JROSS JOHAR Q109 DFENC SAWED Q108 SIE CAMRN4 |
| Aircraft | B77L/H-SDE1E2E3FGHIJ2J3J4J5M1RWXY/LB1D1 |
Departure
| Time | 2026-05-05 02:54 |
|---|---|
| Airport | Miami International Airport (KMIA) |
Arrival
| Time | N/A |
|---|---|
| Airport | John F. Kennedy International Airport (KJFK) |
| Time | Latitude | Longitude | Altitude | Speed | Heading |
|---|---|---|---|---|---|
| 2026-05-05 02:22 | 25.79238 | -80.30635 | 20 ft | 0 kts | 313° |
| 2026-05-05 02:42 | 25.79229 | -80.30625 | 20 ft | 4 kts | 315° |
| 2026-05-05 02:42 | 25.79209 | -80.30604 | 21 ft | 4 kts | 318° |
| 2026-05-05 02:42 | 25.79190 | -80.30584 | 22 ft | 4 kts | 308° |
| 2026-05-05 02:43 | 25.79180 | -80.30568 | 23 ft | 4 kts | 227° |
| 2026-05-05 02:43 | 25.79173 | -80.30567 | 22 ft | 0 kts | 179° |
| 2026-05-05 02:43 | 25.79151 | -80.30567 | 19 ft | 4 kts | 179° |
| 2026-05-05 02:43 | 25.79124 | -80.30566 | 19 ft | 4 kts | 179° |
| 2026-05-05 02:44 | 25.79098 | -80.30566 | 19 ft | 4 kts | 179° |
| 2026-05-05 02:44 | 25.79070 | -80.30565 | 19 ft | 4 kts | 179° |
| 2026-05-05 02:44 | 25.79043 | -80.30565 | 19 ft | 4 kts | 179° |
| 2026-05-05 02:44 | 25.79016 | -80.30564 | 19 ft | 4 kts | 179° |
| 2026-05-05 02:45 | 25.78994 | -80.30564 | 19 ft | 2 kts | 179° |
| 2026-05-05 02:45 | 25.78968 | -80.30563 | 19 ft | 4 kts | 179° |
| 2026-05-05 02:45 | 25.78941 | -80.30563 | 19 ft | 4 kts | 179° |
| 2026-05-05 02:45 | 25.78913 | -80.30562 | 19 ft | 4 kts | 178° |
| 2026-05-05 02:46 | 25.78890 | -80.30561 | 19 ft | 1 kts | 177° |
| 2026-05-05 02:46 | 25.78866 | -80.30557 | 19 ft | 4 kts | 169° |
| 2026-05-05 02:46 | 25.78843 | -80.30558 | 19 ft | 4 kts | 210° |
| 2026-05-05 02:46 | 25.78841 | -80.30577 | 19 ft | 1 kts | 268° |
| 2026-05-05 02:49 | 25.78841 | -80.30578 | 19 ft | 0 kts | 268° |
| 2026-05-05 02:49 | 25.78841 | -80.30583 | 19 ft | 1 kts | 268° |
| 2026-05-05 02:49 | 25.78840 | -80.30593 | 19 ft | 0 kts | 268° |
| 2026-05-05 02:50 | 25.78840 | -80.30606 | 19 ft | 8 kts | 268° |
| 2026-05-05 02:50 | 25.78837 | -80.30684 | 19 ft | 11 kts | 267° |
| 2026-05-05 02:50 | 25.78833 | -80.30767 | 19 ft | 11 kts | 267° |
| 2026-05-05 02:50 | 25.78829 | -80.30849 | 19 ft | 11 kts | 267° |
| 2026-05-05 02:51 | 25.78825 | -80.30933 | 19 ft | 11 kts | 267° |
| 2026-05-05 02:51 | 25.78822 | -80.31018 | 19 ft | 11 kts | 267° |
| 2026-05-05 02:51 | 25.78819 | -80.31102 | 19 ft | 11 kts | 268° |
| 2026-05-05 02:51 | 25.78816 | -80.31185 | 19 ft | 11 kts | 268° |
| 2026-05-05 02:52 | 25.78812 | -80.31269 | 19 ft | 11 kts | 268° |
| 2026-05-05 02:52 | 25.78809 | -80.31352 | 19 ft | 11 kts | 268° |
| 2026-05-05 02:52 | 25.78806 | -80.31436 | 19 ft | 11 kts | 263° |
| 2026-05-05 02:52 | 25.78749 | -80.31480 | 19 ft | 11 kts | 183° |
| 2026-05-05 02:53 | 25.78672 | -80.31478 | 19 ft | 11 kts | 176° |
| 2026-05-05 02:53 | 25.78615 | -80.31456 | 20 ft | 9 kts | 118° |
| 2026-05-05 02:53 | 25.78615 | -80.31379 | 19 ft | 14 kts | 87° |
| 2026-05-05 02:53 | 25.78628 | -80.31078 | 20 ft | 75 kts | 87° |
| 2026-05-05 02:54 | 25.78664 | -80.30226 | 20 ft | 141 kts | 88° |
| 2026-05-05 02:54 | 25.78711 | -80.28983 | 149 ft | 172 kts | 86° |
| 2026-05-05 02:54 | 25.78773 | -80.27746 | 371 ft | 152 kts | 83° |
| 2026-05-05 02:54 | 25.78867 | -80.26581 | 703 ft | 160 kts | 85° |
| 2026-05-05 02:55 | 25.78973 | -80.25300 | 1301 ft | 165 kts | 84° |
| 2026-05-05 02:55 | 25.79080 | -80.24018 | 1970 ft | 173 kts | 84° |
| 2026-05-05 02:55 | 25.79199 | -80.22587 | 2282 ft | 201 kts | 85° |
| 2026-05-05 02:55 | 25.79380 | -80.20945 | 2496 ft | 233 kts | 78° |
| 2026-05-05 02:56 | 25.79853 | -80.19092 | 2977 ft | 252 kts | 66° |
| 2026-05-05 02:56 | 25.80929 | -80.17534 | 3789 ft | 260 kts | 40° |
| 2026-05-05 02:56 | 25.82356 | -80.16362 | 4532 ft | 264 kts | 36° |
| 2026-05-05 02:56 | 25.84014 | -80.15402 | 4974 ft | 272 kts | 11° |
| 2026-05-05 02:57 | 25.85911 | -80.15416 | 5340 ft | 273 kts | 352° |
| 2026-05-05 02:57 | 25.87829 | -80.15602 | 6143 ft | 278 kts | 356° |
| 2026-05-05 02:57 | 25.89755 | -80.15756 | 6912 ft | 278 kts | 343° |
| 2026-05-05 02:57 | 25.91595 | -80.16436 | 7514 ft | 284 kts | 337° |
| 2026-05-05 02:58 | 25.93486 | -80.17151 | 8388 ft | 286 kts | 339° |
| 2026-05-05 02:58 | 25.95390 | -80.17820 | 9244 ft | 290 kts | 339° |
| 2026-05-05 02:58 | 25.97329 | -80.18494 | 10055 ft | 294 kts | 339° |
| 2026-05-05 02:58 | 25.99332 | -80.19151 | 10593 ft | 310 kts | 343° |
| 2026-05-05 02:59 | 26.01575 | -80.19514 | 10809 ft | 341 kts | 351° |
| 2026-05-05 02:59 | 26.04005 | -80.19718 | 11002 ft | 368 kts | 353° |
| 2026-05-05 02:59 | 26.06630 | -80.19913 | 11525 ft | 383 kts | 353° |
| 2026-05-05 02:59 | 26.09312 | -80.20132 | 12338 ft | 390 kts | 352° |
| 2026-05-05 03:00 | 26.12040 | -80.20382 | 13323 ft | 394 kts | 351° |
| 2026-05-05 03:00 | 26.14774 | -80.20656 | 14261 ft | 397 kts | 351° |
| 2026-05-05 03:00 | 26.17560 | -80.20944 | 15088 ft | 401 kts | 350° |
| 2026-05-05 03:00 | 26.20337 | -80.21231 | 15899 ft | 406 kts | 350° |
| 2026-05-05 03:01 | 26.23138 | -80.21493 | 16736 ft | 410 kts | 350° |
| 2026-05-05 03:01 | 26.26047 | -80.21748 | 17558 ft | 414 kts | 350° |
| 2026-05-05 03:01 | 26.28942 | -80.22000 | 18377 ft | 419 kts | 350° |
| 2026-05-05 03:01 | 26.31828 | -80.22254 | 19075 ft | 422 kts | 350° |
| 2026-05-05 03:02 | 26.34773 | -80.22517 | 19776 ft | 426 kts | 350° |
| 2026-05-05 03:02 | 26.37710 | -80.22780 | 20463 ft | 429 kts | 349° |
| 2026-05-05 03:02 | 26.40725 | -80.23073 | 21162 ft | 432 kts | 349° |
| 2026-05-05 03:02 | 26.43732 | -80.23386 | 21848 ft | 436 kts | 349° |
| 2026-05-05 03:03 | 26.46744 | -80.23704 | 22497 ft | 440 kts | 349° |
| 2026-05-05 03:03 | 26.49829 | -80.24027 | 23140 ft | 444 kts | 349° |
| 2026-05-05 03:03 | 26.52857 | -80.24340 | 23732 ft | 448 kts | 349° |
| 2026-05-05 03:03 | 26.56007 | -80.24664 | 24299 ft | 450 kts | 349° |
| 2026-05-05 03:04 | 26.59143 | -80.25083 | 24908 ft | 449 kts | 346° |
| 2026-05-05 03:04 | 26.62193 | -80.25623 | 25500 ft | 450 kts | 345° |
| 2026-05-05 03:04 | 26.65305 | -80.26186 | 26083 ft | 452 kts | 345° |
| 2026-05-05 03:04 | 26.68419 | -80.26722 | 26650 ft | 455 kts | 346° |
| 2026-05-05 03:05 | 26.71614 | -80.26977 | 27186 ft | 467 kts | 357° |
| 2026-05-05 03:05 | 26.74867 | -80.26332 | 27644 ft | 478 kts | 7° |
| 2026-05-05 03:05 | 26.78122 | -80.25452 | 28059 ft | 484 kts | 7° |
| 2026-05-05 03:05 | 26.81399 | -80.24571 | 28550 ft | 486 kts | 7° |
| 2026-05-05 03:06 | 26.84693 | -80.23703 | 29120 ft | 488 kts | 6° |
| 2026-05-05 03:06 | 26.87983 | -80.22857 | 29574 ft | 490 kts | 6° |
| 2026-05-05 03:06 | 26.91323 | -80.22016 | 30003 ft | 493 kts | 5° |
| 2026-05-05 03:06 | 26.94664 | -80.21186 | 30492 ft | 493 kts | 5° |
| 2026-05-05 03:07 | 26.98008 | -80.20358 | 31136 ft | 488 kts | 5° |
| 2026-05-05 03:07 | 27.01302 | -80.19542 | 31823 ft | 482 kts | 5° |
| 2026-05-05 03:07 | 27.04567 | -80.18734 | 32481 ft | 478 kts | 5° |
| 2026-05-05 03:07 | 27.07781 | -80.17940 | 33051 ft | 475 kts | 4° |
| 2026-05-05 03:08 | 27.11038 | -80.17137 | 33601 ft | 473 kts | 4° |
| 2026-05-05 03:08 | 27.14235 | -80.16347 | 34161 ft | 471 kts | 4° |
| 2026-05-05 03:08 | 27.17443 | -80.15557 | 34437 ft | 473 kts | 4° |
| 2026-05-05 03:08 | 27.20674 | -80.14761 | 34734 ft | 475 kts | 4° |
| 2026-05-05 03:09 | 27.23863 | -80.13974 | 35090 ft | 474 kts | 4° |
| 2026-05-05 03:09 | 27.27097 | -80.13172 | 35482 ft | 473 kts | 4° |
| 2026-05-05 03:09 | 27.30339 | -80.12366 | 35842 ft | 473 kts | 4° |
| 2026-05-05 03:09 | 27.33470 | -80.11588 | 36174 ft | 473 kts | 3° |
| 2026-05-05 03:10 | 27.36682 | -80.10790 | 36510 ft | 472 kts | 3° |
| 2026-05-05 03:10 | 27.39929 | -80.09983 | 36852 ft | 472 kts | 3° |
| 2026-05-05 03:10 | 27.43100 | -80.09196 | 37007 ft | 476 kts | 3° |
| 2026-05-05 03:11 | 27.49606 | -80.07580 | 37067 ft | 477 kts | 3° |
| 2026-05-05 03:11 | 27.56071 | -80.05962 | 37067 ft | 471 kts | 3° |
| 2026-05-05 03:12 | 27.62437 | -80.04370 | 37077 ft | 469 kts | 3° |
| 2026-05-05 03:12 | 27.68827 | -80.02776 | 37079 ft | 468 kts | 3° |
| 2026-05-05 03:13 | 27.75162 | -80.01195 | 37084 ft | 470 kts | 3° |
| 2026-05-05 03:13 | 27.81518 | -79.99605 | 37082 ft | 471 kts | 3° |
| 2026-05-05 03:14 | 27.87974 | -79.97987 | 37088 ft | 473 kts | 3° |
| 2026-05-05 03:14 | 27.94362 | -79.96383 | 37088 ft | 474 kts | 3° |
| 2026-05-05 03:15 | 28.00812 | -79.94761 | 37134 ft | 475 kts | 3° |
| 2026-05-05 03:15 | 28.07301 | -79.93129 | 37096 ft | 477 kts | 3° |
| 2026-05-05 03:16 | 28.13759 | -79.91501 | 37093 ft | 478 kts | 3° |
| 2026-05-05 03:16 | 28.20253 | -79.89862 | 37091 ft | 478 kts | 3° |
| 2026-05-05 03:17 | 28.25699 | -79.88486 | 37096 ft | 478 kts | 3° |
| 2026-05-05 03:17 | 28.32113 | -79.86865 | 37113 ft | 479 kts | 4° |
| 2026-05-05 03:18 | 28.38673 | -79.85204 | 37097 ft | 480 kts | 4° |
| 2026-05-05 03:18 | 28.45206 | -79.83548 | 37101 ft | 481 kts | 4° |
| 2026-05-05 03:19 | 28.54988 | -79.81064 | 37100 ft | 481 kts | 4° |
| 2026-05-05 03:19 | 28.61527 | -79.79401 | 37115 ft | 482 kts | 4° |
| 2026-05-05 03:20 | 28.68088 | -79.77732 | 37105 ft | 484 kts | 4° |
| 2026-05-05 03:20 | 28.74682 | -79.76052 | 37107 ft | 486 kts | 4° |
| 2026-05-05 03:21 | 28.81293 | -79.74364 | 37110 ft | 488 kts | 4° |
| 2026-05-05 03:21 | 28.87907 | -79.72673 | 37131 ft | 490 kts | 4° |
| 2026-05-05 03:22 | 28.94556 | -79.70971 | 37111 ft | 491 kts | 4° |
| 2026-05-05 03:22 | 29.01239 | -79.69257 | 37113 ft | 492 kts | 4° |
| 2026-05-05 03:23 | 29.07892 | -79.67549 | 37109 ft | 492 kts | 4° |
| 2026-05-05 03:23 | 29.14612 | -79.65821 | 37157 ft | 491 kts | 5° |
| 2026-05-05 03:24 | 29.21248 | -79.64113 | 37128 ft | 492 kts | 5° |
| 2026-05-05 03:24 | 29.27929 | -79.62392 | 37117 ft | 492 kts | 5° |
| 2026-05-05 03:25 | 29.34618 | -79.60666 | 37116 ft | 491 kts | 5° |
| 2026-05-05 03:25 | 29.41300 | -79.58939 | 37117 ft | 491 kts | 5° |
| 2026-05-05 03:26 | 29.47950 | -79.57219 | 37125 ft | 491 kts | 5° |
| 2026-05-05 03:26 | 29.54548 | -79.55510 | 37111 ft | 491 kts | 5° |
| 2026-05-05 03:27 | 29.61239 | -79.53774 | 37116 ft | 490 kts | 5° |
| 2026-05-05 03:27 | 29.67910 | -79.52041 | 37127 ft | 490 kts | 5° |
| 2026-05-05 03:28 | 29.74573 | -79.50309 | 37122 ft | 491 kts | 5° |
| 2026-05-05 03:28 | 29.81240 | -79.48573 | 37123 ft | 491 kts | 5° |
| 2026-05-05 03:29 | 29.87885 | -79.46840 | 37126 ft | 491 kts | 5° |
| 2026-05-05 03:29 | 29.94563 | -79.45095 | 37124 ft | 491 kts | 5° |
| 2026-05-05 03:30 | 30.01236 | -79.43350 | 37139 ft | 492 kts | 5° |
| 2026-05-05 03:30 | 30.07837 | -79.41622 | 37116 ft | 493 kts | 5° |
| 2026-05-05 03:31 | 30.14585 | -79.39853 | 37130 ft | 494 kts | 5° |
| 2026-05-05 03:31 | 30.21298 | -79.38090 | 37133 ft | 495 kts | 5° |
| 2026-05-05 03:32 | 30.28033 | -79.36319 | 37126 ft | 496 kts | 5° |
| 2026-05-05 03:32 | 30.34769 | -79.34545 | 37126 ft | 497 kts | 5° |
| 2026-05-05 03:33 | 30.41475 | -79.32776 | 37136 ft | 497 kts | 5° |
| 2026-05-05 03:33 | 30.48216 | -79.30995 | 37127 ft | 497 kts | 5° |
| 2026-05-05 03:34 | 30.54941 | -79.29216 | 37131 ft | 498 kts | 5° |
| 2026-05-05 03:34 | 30.61734 | -79.27417 | 37130 ft | 497 kts | 5° |
| 2026-05-05 03:35 | 30.68471 | -79.25630 | 37130 ft | 497 kts | 5° |
| 2026-05-05 03:35 | 30.75191 | -79.23845 | 37130 ft | 497 kts | 5° |
| 2026-05-05 03:36 | 30.81905 | -79.22059 | 37174 ft | 497 kts | 5° |
| 2026-05-05 03:36 | 30.88601 | -79.20276 | 37140 ft | 496 kts | 5° |
| 2026-05-05 03:37 | 30.95389 | -79.18464 | 37130 ft | 496 kts | 5° |
| 2026-05-05 03:37 | 31.02047 | -79.16685 | 37129 ft | 495 kts | 5° |
| 2026-05-05 03:38 | 31.08831 | -79.14871 | 37158 ft | 495 kts | 5° |
| 2026-05-05 03:38 | 31.15470 | -79.13093 | 37133 ft | 494 kts | 5° |
| 2026-05-05 03:39 | 31.22173 | -79.11294 | 37131 ft | 494 kts | 5° |
| 2026-05-05 03:39 | 31.28919 | -79.09481 | 37134 ft | 494 kts | 5° |
| 2026-05-05 03:40 | 31.35637 | -79.07674 | 37167 ft | 494 kts | 5° |
| 2026-05-05 03:40 | 31.42275 | -79.05886 | 37126 ft | 494 kts | 5° |
| 2026-05-05 03:41 | 31.48991 | -79.04073 | 37133 ft | 495 kts | 5° |
| 2026-05-05 03:41 | 31.55735 | -79.02252 | 37136 ft | 496 kts | 5° |
| 2026-05-05 03:42 | 31.62461 | -79.00432 | 37177 ft | 498 kts | 6° |
| 2026-05-05 03:42 | 31.69250 | -78.98592 | 37131 ft | 500 kts | 6° |
| 2026-05-05 03:43 | 31.76042 | -78.96747 | 37141 ft | 500 kts | 6° |
| 2026-05-05 03:43 | 31.82739 | -78.94925 | 37136 ft | 500 kts | 6° |
| 2026-05-05 03:44 | 31.89528 | -78.93076 | 37150 ft | 500 kts | 6° |
| 2026-05-05 03:44 | 31.96344 | -78.91217 | 37136 ft | 500 kts | 6° |
| 2026-05-05 03:45 | 32.03118 | -78.89366 | 37128 ft | 499 kts | 6° |
| 2026-05-05 03:45 | 32.09855 | -78.87523 | 37129 ft | 498 kts | 6° |
| 2026-05-05 03:46 | 32.16610 | -78.85673 | 37133 ft | 497 kts | 7° |
| 2026-05-05 03:46 | 32.23335 | -78.83828 | 37126 ft | 496 kts | 7° |
| 2026-05-05 03:47 | 32.30065 | -78.81978 | 37131 ft | 496 kts | 7° |
| 2026-05-05 03:47 | 32.36781 | -78.80129 | 37130 ft | 495 kts | 7° |
| 2026-05-05 03:48 | 32.43470 | -78.78286 | 37139 ft | 495 kts | 7° |
| 2026-05-05 03:48 | 32.50207 | -78.76427 | 37133 ft | 495 kts | 7° |
| 2026-05-05 03:49 | 32.56913 | -78.74572 | 37129 ft | 495 kts | 7° |
| 2026-05-05 03:49 | 32.63557 | -78.72733 | 37132 ft | 494 kts | 7° |
| 2026-05-05 03:50 | 32.70288 | -78.70866 | 37129 ft | 495 kts | 8° |
| 2026-05-05 03:50 | 32.76989 | -78.69005 | 37129 ft | 494 kts | 8° |
| 2026-05-05 03:51 | 32.83698 | -78.67139 | 37118 ft | 494 kts | 8° |
| 2026-05-05 03:51 | 32.90361 | -78.65282 | 37135 ft | 495 kts | 8° |
| 2026-05-05 03:52 | 32.97037 | -78.63420 | 37127 ft | 495 kts | 8° |
| 2026-05-05 03:52 | 33.03770 | -78.61538 | 37132 ft | 496 kts | 8° |
| 2026-05-05 03:53 | 33.10520 | -78.59648 | 37128 ft | 496 kts | 8° |
| 2026-05-05 03:53 | 33.17247 | -78.57762 | 37159 ft | 497 kts | 8° |
| 2026-05-05 03:54 | 33.23991 | -78.55868 | 37124 ft | 497 kts | 8° |
| 2026-05-05 03:54 | 33.30730 | -78.53972 | 37125 ft | 497 kts | 8° |
| 2026-05-05 03:55 | 33.37382 | -78.52098 | 37121 ft | 496 kts | 8° |
| 2026-05-05 03:55 | 33.44145 | -78.50187 | 37139 ft | 496 kts | 9° |
| 2026-05-05 03:56 | 33.50716 | -78.47413 | 37116 ft | 504 kts | 21° |
| 2026-05-05 03:56 | 33.57015 | -78.43776 | 37121 ft | 504 kts | 21° |
| 2026-05-05 03:57 | 33.63324 | -78.40112 | 37122 ft | 504 kts | 21° |
| 2026-05-05 03:57 | 33.69654 | -78.36481 | 37126 ft | 503 kts | 21° |
| 2026-05-05 03:58 | 33.75943 | -78.32895 | 37119 ft | 503 kts | 21° |
| 2026-05-05 03:58 | 33.82255 | -78.29295 | 37117 ft | 502 kts | 21° |
| 2026-05-05 03:59 | 33.88564 | -78.25687 | 37119 ft | 501 kts | 21° |
| 2026-05-05 03:59 | 33.94864 | -78.22067 | 37117 ft | 501 kts | 21° |
| 2026-05-05 04:00 | 34.01158 | -78.18449 | 37124 ft | 501 kts | 21° |
| 2026-05-05 04:00 | 34.07449 | -78.14832 | 37123 ft | 500 kts | 21° |
| 2026-05-05 04:01 | 34.13663 | -78.11256 | 37111 ft | 500 kts | 21° |
| 2026-05-05 04:01 | 34.19993 | -78.07607 | 37125 ft | 500 kts | 21° |
| 2026-05-05 04:02 | 34.26267 | -78.03984 | 37113 ft | 499 kts | 21° |
| 2026-05-05 04:02 | 34.32543 | -78.00353 | 37127 ft | 498 kts | 21° |
| 2026-05-05 04:03 | 34.38722 | -77.96772 | 37120 ft | 498 kts | 21° |
| 2026-05-05 04:03 | 34.44980 | -77.93140 | 37124 ft | 498 kts | 21° |
| 2026-05-05 04:04 | 34.51256 | -77.89492 | 37115 ft | 498 kts | 21° |
| 2026-05-05 04:04 | 34.57503 | -77.85854 | 37120 ft | 497 kts | 21° |
| 2026-05-05 04:05 | 34.62692 | -77.82828 | 37119 ft | 497 kts | 21° |
| 2026-05-05 04:05 | 34.69960 | -77.78581 | 37124 ft | 498 kts | 21° |
| 2026-05-05 04:06 | 34.75143 | -77.75548 | 37119 ft | 497 kts | 21° |
| 2026-05-05 04:06 | 34.81385 | -77.71889 | 37119 ft | 497 kts | 21° |
| 2026-05-05 04:07 | 34.87614 | -77.68232 | 37141 ft | 497 kts | 21° |
| 2026-05-05 04:07 | 34.93854 | -77.64562 | 37125 ft | 497 kts | 21° |
| 2026-05-05 04:08 | 35.00067 | -77.60902 | 37120 ft | 497 kts | 21° |
| 2026-05-05 04:08 | 35.06302 | -77.57223 | 37116 ft | 497 kts | 21° |
| 2026-05-05 04:09 | 35.12484 | -77.53568 | 37130 ft | 496 kts | 21° |
| 2026-05-05 04:09 | 35.18707 | -77.49884 | 37095 ft | 497 kts | 21° |
| 2026-05-05 04:10 | 35.24888 | -77.46218 | 37107 ft | 496 kts | 21° |
| 2026-05-05 04:10 | 35.31121 | -77.42514 | 37108 ft | 496 kts | 21° |
| 2026-05-05 04:11 | 35.37361 | -77.38801 | 37090 ft | 496 kts | 21° |
| 2026-05-05 04:11 | 35.43532 | -77.35122 | 37078 ft | 496 kts | 21° |
| 2026-05-05 04:12 | 35.49736 | -77.31416 | 37078 ft | 496 kts | 21° |
| 2026-05-05 04:12 | 35.55920 | -77.27717 | 37088 ft | 496 kts | 21° |
| 2026-05-05 04:13 | 35.62148 | -77.23984 | 37089 ft | 496 kts | 21° |
| 2026-05-05 04:13 | 35.68348 | -77.20262 | 37079 ft | 496 kts | 21° |
| 2026-05-05 04:14 | 35.74495 | -77.16565 | 37099 ft | 495 kts | 21° |
| 2026-05-05 04:14 | 35.80681 | -77.12838 | 37101 ft | 495 kts | 21° |
| 2026-05-05 04:15 | 35.86848 | -77.09116 | 37100 ft | 495 kts | 21° |
| 2026-05-05 04:15 | 35.93005 | -77.05323 | 37084 ft | 497 kts | 24° |
| 2026-05-05 04:16 | 35.99041 | -77.00991 | 37090 ft | 498 kts | 26° |
| 2026-05-05 04:16 | 36.04949 | -76.96621 | 37106 ft | 498 kts | 26° |
| 2026-05-05 04:17 | 36.10879 | -76.92251 | 37074 ft | 498 kts | 26° |
| 2026-05-05 04:17 | 36.16823 | -76.87895 | 37065 ft | 497 kts | 26° |
| 2026-05-05 04:18 | 36.22813 | -76.83508 | 37065 ft | 497 kts | 26° |
| 2026-05-05 04:18 | 36.28769 | -76.79139 | 37081 ft | 497 kts | 26° |
| 2026-05-05 04:19 | 36.34667 | -76.74804 | 37063 ft | 497 kts | 26° |
| 2026-05-05 04:19 | 36.40637 | -76.70405 | 37051 ft | 497 kts | 26° |
| 2026-05-05 04:20 | 36.46581 | -76.66019 | 37054 ft | 496 kts | 26° |
| 2026-05-05 04:20 | 36.52504 | -76.61639 | 37050 ft | 495 kts | 26° |
| 2026-05-05 04:21 | 36.58405 | -76.57268 | 37068 ft | 493 kts | 26° |
| 2026-05-05 04:21 | 36.64265 | -76.52920 | 37066 ft | 491 kts | 26° |
| 2026-05-05 04:22 | 36.70159 | -76.48539 | 37053 ft | 491 kts | 25° |
| 2026-05-05 04:22 | 36.76018 | -76.44177 | 37060 ft | 490 kts | 26° |
| 2026-05-05 04:23 | 36.81876 | -76.39808 | 37047 ft | 490 kts | 26° |
| 2026-05-05 04:23 | 36.87738 | -76.35428 | 37042 ft | 491 kts | 26° |
| 2026-05-05 04:24 | 36.93552 | -76.31075 | 37042 ft | 491 kts | 26° |
| 2026-05-05 04:25 | 37.02375 | -76.24454 | 37047 ft | 491 kts | 26° |
| 2026-05-05 04:25 | 37.08234 | -76.20047 | 37036 ft | 492 kts | 26° |
| 2026-05-05 04:26 | 37.14062 | -76.15656 | 37034 ft | 492 kts | 27° |
| 2026-05-05 04:26 | 37.19936 | -76.11220 | 37033 ft | 493 kts | 26° |
| 2026-05-05 04:27 | 37.25789 | -76.06795 | 37033 ft | 493 kts | 26° |
| 2026-05-05 04:27 | 37.31679 | -76.02333 | 37030 ft | 493 kts | 26° |